sensor_id;sensor_type;location;lat;lon;timestamp;P1;durP1;ratioP1;P2;durP2;ratioP2
19285;SDS011;9776;50.798;6.430;2022-10-12T00:01:18;3.22;;;3.00;;
19285;SDS011;9776;50.798;6.430;2022-10-12T00:03:47;3.28;;;2.97;;
19285;SDS011;9776;50.798;6.430;2022-10-12T00:06:15;3.30;;;3.00;;
19285;SDS011;9776;50.798;6.430;2022-10-12T00:08:43;3.10;;;2.90;;
19285;SDS011;9776;50.798;6.430;2022-10-12T00:11:11;3.35;;;2.80;;
19285;SDS011;9776;50.798;6.430;2022-10-12T00:13:40;3.08;;;2.88;;
19285;SDS011;9776;50.798;6.430;2022-10-12T00:16:09;3.33;;;3.03;;
19285;SDS011;9776;50.798;6.430;2022-10-12T00:18:37;3.47;;;2.90;;
19285;SDS011;9776;50.798;6.430;2022-10-12T00:21:05;2.65;;;2.40;;
19285;SDS011;9776;50.798;6.430;2022-10-12T00:23:33;3.50;;;3.30;;
19285;SDS011;9776;50.798;6.430;2022-10-12T00:26:01;3.22;;;2.97;;
19285;SDS011;9776;50.798;6.430;2022-10-12T00:28:29;3.10;;;2.90;;
19285;SDS011;9776;50.798;6.430;2022-10-12T00:30:56;3.72;;;3.25;;
19285;SDS011;9776;50.798;6.430;2022-10-12T00:33:23;3.33;;;3.03;;
19285;SDS011;9776;50.798;6.430;2022-10-12T00:35:52;3.25;;;2.90;;
19285;SDS011;9776;50.798;6.430;2022-10-12T00:38:19;3.25;;;2.97;;
19285;SDS011;9776;50.798;6.430;2022-10-12T00:40:45;3.67;;;3.38;;
19285;SDS011;9776;50.798;6.430;2022-10-12T00:43:25;3.30;;;3.10;;
19285;SDS011;9776;50.798;6.430;2022-10-12T00:45:54;3.20;;;2.97;;
19285;SDS011;9776;50.798;6.430;2022-10-12T00:48:23;2.97;;;2.78;;
19285;SDS011;9776;50.798;6.430;2022-10-12T00:50:50;3.17;;;2.78;;
19285;SDS011;9776;50.798;6.430;2022-10-12T00:53:19;3.42;;;3.15;;
19285;SDS011;9776;50.798;6.430;2022-10-12T00:55:51;3.05;;;2.80;;
19285;SDS011;9776;50.798;6.430;2022-10-12T00:58:23;4.45;;;3.40;;
19285;SDS011;9776;50.798;6.430;2022-10-12T01:00:50;3.17;;;2.90;;
19285;SDS011;9776;50.798;6.430;2022-10-12T01:03:17;3.00;;;2.80;;
19285;SDS011;9776;50.798;6.430;2022-10-12T01:05:48;3.17;;;2.90;;
19285;SDS011;9776;50.798;6.430;2022-10-12T01:08:14;3.08;;;2.88;;
19285;SDS011;9776;50.798;6.430;2022-10-12T01:10:41;3.60;;;3.30;;
19285;SDS011;9776;50.798;6.430;2022-10-12T01:13:07;3.03;;;2.83;;
19285;SDS011;9776;50.798;6.430;2022-10-12T01:15:35;3.00;;;2.80;;
19285;SDS011;9776;50.798;6.430;2022-10-12T01:18:05;3.83;;;2.78;;
19285;SDS011;9776;50.798;6.430;2022-10-12T01:20:43;3.38;;;3.08;;
19285;SDS011;9776;50.798;6.430;2022-10-12T01:23:27;3.15;;;2.95;;
19285;SDS011;9776;50.798;6.430;2022-10-12T01:26:24;3.25;;;2.83;;
19285;SDS011;9776;50.798;6.430;2022-10-12T01:29:14;3.20;;;3.00;;
19285;SDS011;9776;50.798;6.430;2022-10-12T01:32:10;3.00;;;2.80;;
19285;SDS011;9776;50.798;6.430;2022-10-12T01:34:45;3.45;;;3.13;;
19285;SDS011;9776;50.798;6.430;2022-10-12T01:37:19;2.72;;;2.53;;
19285;SDS011;9776;50.798;6.430;2022-10-12T01:39:52;3.50;;;3.20;;
19285;SDS011;9776;50.798;6.430;2022-10-12T01:42:21;3.05;;;2.75;;
19285;SDS011;9776;50.798;6.430;2022-10-12T01:44:59;2.90;;;2.70;;
19285;SDS011;9776;50.798;6.430;2022-10-12T01:47:28;2.95;;;2.75;;
19285;SDS011;9776;50.798;6.430;2022-10-12T01:49:55;3.10;;;2.80;;
19285;SDS011;9776;50.798;6.430;2022-10-12T01:52:26;3.00;;;2.80;;
19285;SDS011;9776;50.798;6.430;2022-10-12T01:54:56;3.50;;;3.20;;
19285;SDS011;9776;50.798;6.430;2022-10-12T01:57:45;2.72;;;2.53;;
19285;SDS011;9776;50.798;6.430;2022-10-12T02:00:19;2.80;;;2.60;;
19285;SDS011;9776;50.798;6.430;2022-10-12T02:02:51;3.20;;;3.00;;
19285;SDS011;9776;50.798;6.430;2022-10-12T02:05:25;3.20;;;2.90;;
19285;SDS011;9776;50.798;6.430;2022-10-12T02:08:00;2.67;;;2.47;;
19285;SDS011;9776;50.798;6.430;2022-10-12T02:10:32;3.25;;;3.05;;
19285;SDS011;9776;50.798;6.430;2022-10-12T02:13:04;3.58;;;3.20;;
19285;SDS011;9776;50.798;6.430;2022-10-12T02:15:34;3.33;;;3.13;;
19285;SDS011;9776;50.798;6.430;2022-10-12T02:18:05;2.97;;;2.78;;
19285;SDS011;9776;50.798;6.430;2022-10-12T02:20:33;3.28;;;3.08;;
19285;SDS011;9776;50.798;6.430;2022-10-12T02:23:03;3.08;;;2.88;;
19285;SDS011;9776;50.798;6.430;2022-10-12T02:25:30;3.08;;;2.88;;
19285;SDS011;9776;50.798;6.430;2022-10-12T02:27:59;3.10;;;2.90;;
19285;SDS011;9776;50.798;6.430;2022-10-12T02:30:30;2.90;;;2.70;;
19285;SDS011;9776;50.798;6.430;2022-10-12T02:33:03;3.38;;;2.97;;
19285;SDS011;9776;50.798;6.430;2022-10-12T02:35:35;2.60;;;2.47;;
19285;SDS011;9776;50.798;6.430;2022-10-12T02:38:10;2.90;;;2.70;;
19285;SDS011;9776;50.798;6.430;2022-10-12T02:40:40;3.13;;;2.92;;
19285;SDS011;9776;50.798;6.430;2022-10-12T02:43:12;2.83;;;2.63;;
19285;SDS011;9776;50.798;6.430;2022-10-12T02:45:44;3.25;;;3.00;;
19285;SDS011;9776;50.798;6.430;2022-10-12T02:48:14;3.63;;;3.20;;
19285;SDS011;9776;50.798;6.430;2022-10-12T02:50:45;3.60;;;3.30;;
19285;SDS011;9776;50.798;6.430;2022-10-12T02:53:14;3.22;;;3.03;;
19285;SDS011;9776;50.798;6.430;2022-10-12T02:55:46;3.45;;;3.15;;
19285;SDS011;9776;50.798;6.430;2022-10-12T02:58:13;3.03;;;2.83;;
19285;SDS011;9776;50.798;6.430;2022-10-12T03:00:40;3.40;;;3.20;;
19285;SDS011;9776;50.798;6.430;2022-10-12T03:03:07;3.63;;;3.33;;
19285;SDS011;9776;50.798;6.430;2022-10-12T03:05:35;4.20;;;3.90;;
19285;SDS011;9776;50.798;6.430;2022-10-12T03:08:01;3.28;;;3.08;;
19285;SDS011;9776;50.798;6.430;2022-10-12T03:10:28;3.55;;;3.25;;
19285;SDS011;9776;50.798;6.430;2022-10-12T03:12:55;3.67;;;3.38;;
19285;SDS011;9776;50.798;6.430;2022-10-12T03:15:21;3.50;;;3.30;;
19285;SDS011;9776;50.798;6.430;2022-10-12T03:17:48;3.10;;;2.90;;
19285;SDS011;9776;50.798;6.430;2022-10-12T03:20:15;3.03;;;2.72;;
19285;SDS011;9776;50.798;6.430;2022-10-12T03:22:43;3.30;;;3.10;;
19285;SDS011;9776;50.798;6.430;2022-10-12T03:25:09;3.70;;;3.40;;
19285;SDS011;9776;50.798;6.430;2022-10-12T03:27:36;3.22;;;2.92;;
19285;SDS011;9776;50.798;6.430;2022-10-12T03:30:03;2.90;;;2.70;;
19285;SDS011;9776;50.798;6.430;2022-10-12T03:32:30;3.20;;;2.90;;
19285;SDS011;9776;50.798;6.430;2022-10-12T03:34:56;3.40;;;3.10;;
19285;SDS011;9776;50.798;6.430;2022-10-12T03:37:23;3.40;;;3.13;;
19285;SDS011;9776;50.798;6.430;2022-10-12T03:39:51;3.05;;;2.85;;
19285;SDS011;9776;50.798;6.430;2022-10-12T03:42:18;3.42;;;3.22;;
19285;SDS011;9776;50.798;6.430;2022-10-12T03:44:44;3.47;;;3.20;;
19285;SDS011;9776;50.798;6.430;2022-10-12T03:47:11;3.90;;;3.60;;
19285;SDS011;9776;50.798;6.430;2022-10-12T03:49:38;3.53;;;3.22;;
19285;SDS011;9776;50.798;6.430;2022-10-12T03:52:04;3.60;;;3.30;;
19285;SDS011;9776;50.798;6.430;2022-10-12T03:54:31;3.67;;;3.38;;
19285;SDS011;9776;50.798;6.430;2022-10-12T03:56:59;3.58;;;3.13;;
19285;SDS011;9776;50.798;6.430;2022-10-12T03:59:26;3.35;;;3.10;;
19285;SDS011;9776;50.798;6.430;2022-10-12T04:01:52;3.25;;;3.05;;
19285;SDS011;9776;50.798;6.430;2022-10-12T04:04:19;4.22;;;3.80;;
19285;SDS011;9776;50.798;6.430;2022-10-12T04:06:46;3.47;;;3.28;;
19285;SDS011;9776;50.798;6.430;2022-10-12T04:09:12;3.80;;;3.50;;
19285;SDS011;9776;50.798;6.430;2022-10-12T04:11:39;3.40;;;3.13;;
19285;SDS011;9776;50.798;6.430;2022-10-12T04:14:07;3.47;;;3.17;;
19285;SDS011;9776;50.798;6.430;2022-10-12T04:16:33;3.30;;;3.00;;
19285;SDS011;9776;50.798;6.430;2022-10-12T04:19:00;3.40;;;3.20;;
19285;SDS011;9776;50.798;6.430;2022-10-12T04:21:27;3.88;;;3.35;;
19285;SDS011;9776;50.798;6.430;2022-10-12T04:23:56;3.67;;;3.22;;
19285;SDS011;9776;50.798;6.430;2022-10-12T04:26:22;3.70;;;3.22;;
19285;SDS011;9776;50.798;6.430;2022-10-12T04:28:49;3.30;;;3.10;;
19285;SDS011;9776;50.798;6.430;2022-10-12T04:31:17;3.85;;;3.55;;
19285;SDS011;9776;50.798;6.430;2022-10-12T04:33:44;3.40;;;3.20;;
19285;SDS011;9776;50.798;6.430;2022-10-12T04:36:10;3.58;;;3.13;;
19285;SDS011;9776;50.798;6.430;2022-10-12T04:38:37;3.30;;;3.10;;
19285;SDS011;9776;50.798;6.430;2022-10-12T04:41:04;3.28;;;3.08;;
19285;SDS011;9776;50.798;6.430;2022-10-12T04:43:30;3.00;;;2.80;;
19285;SDS011;9776;50.798;6.430;2022-10-12T04:45:58;3.35;;;3.05;;
19285;SDS011;9776;50.798;6.430;2022-10-12T04:48:29;4.03;;;3.72;;
19285;SDS011;9776;50.798;6.430;2022-10-12T04:50:56;3.72;;;3.42;;
19285;SDS011;9776;50.798;6.430;2022-10-12T04:53:22;3.63;;;3.33;;
19285;SDS011;9776;50.798;6.430;2022-10-12T04:55:49;3.78;;;3.47;;
19285;SDS011;9776;50.798;6.430;2022-10-12T04:58:16;3.67;;;3.38;;
19285;SDS011;9776;50.798;6.430;2022-10-12T05:00:42;4.03;;;3.53;;
19285;SDS011;9776;50.798;6.430;2022-10-12T05:03:09;3.83;;;3.53;;
19285;SDS011;9776;50.798;6.430;2022-10-12T05:05:37;4.15;;;3.75;;
19285;SDS011;9776;50.798;6.430;2022-10-12T05:08:04;3.90;;;3.50;;
19285;SDS011;9776;50.798;6.430;2022-10-12T05:10:31;3.22;;;3.00;;
19285;SDS011;9776;50.798;6.430;2022-10-12T05:12:58;3.83;;;3.50;;
19285;SDS011;9776;50.798;6.430;2022-10-12T05:15:25;3.40;;;3.20;;
19285;SDS011;9776;50.798;6.430;2022-10-12T05:17:52;3.28;;;3.08;;
19285;SDS011;9776;50.798;6.430;2022-10-12T05:20:18;3.80;;;3.50;;
19285;SDS011;9776;50.798;6.430;2022-10-12T05:22:46;3.30;;;3.10;;
19285;SDS011;9776;50.798;6.430;2022-10-12T05:25:13;3.25;;;3.05;;
19285;SDS011;9776;50.798;6.430;2022-10-12T05:27:40;3.70;;;3.40;;
19285;SDS011;9776;50.798;6.430;2022-10-12T05:30:07;3.53;;;3.22;;
19285;SDS011;9776;50.798;6.430;2022-10-12T05:32:34;3.63;;;3.33;;
19285;SDS011;9776;50.798;6.430;2022-10-12T05:35:01;3.45;;;3.15;;
19285;SDS011;9776;50.798;6.430;2022-10-12T05:37:28;3.83;;;3.45;;
19285;SDS011;9776;50.798;6.430;2022-10-12T05:39:56;3.75;;;3.45;;
19285;SDS011;9776;50.798;6.430;2022-10-12T05:42:22;3.65;;;3.35;;
19285;SDS011;9776;50.798;6.430;2022-10-12T05:44:49;3.30;;;3.00;;
19285;SDS011;9776;50.798;6.430;2022-10-12T05:47:15;3.65;;;3.35;;
19285;SDS011;9776;50.798;6.430;2022-10-12T05:49:42;3.22;;;2.90;;
19285;SDS011;9776;50.798;6.430;2022-10-12T05:52:09;3.33;;;3.13;;
19285;SDS011;9776;50.798;6.430;2022-10-12T05:54:35;3.30;;;3.10;;
19285;SDS011;9776;50.798;6.430;2022-10-12T05:57:04;4.00;;;3.70;;
19285;SDS011;9776;50.798;6.430;2022-10-12T05:59:30;3.60;;;3.40;;
19285;SDS011;9776;50.798;6.430;2022-10-12T06:01:57;3.80;;;3.50;;
19285;SDS011;9776;50.798;6.430;2022-10-12T06:04:24;3.45;;;3.17;;
19285;SDS011;9776;50.798;6.430;2022-10-12T06:06:50;4.38;;;3.88;;
19285;SDS011;9776;50.798;6.430;2022-10-12T06:09:17;6.18;;;3.20;;
19285;SDS011;9776;50.798;6.430;2022-10-12T06:11:44;3.22;;;3.00;;
19285;SDS011;9776;50.798;6.430;2022-10-12T06:14:12;3.33;;;3.08;;
19285;SDS011;9776;50.798;6.430;2022-10-12T06:16:38;4.10;;;3.10;;
19285;SDS011;9776;50.798;6.430;2022-10-12T06:19:05;3.65;;;3.45;;
19285;SDS011;9776;50.798;6.430;2022-10-12T06:21:32;3.47;;;3.22;;
19285;SDS011;9776;50.798;6.430;2022-10-12T06:23:58;3.83;;;3.53;;
19285;SDS011;9776;50.798;6.430;2022-10-12T06:26:25;3.63;;;3.13;;
19285;SDS011;9776;50.798;6.430;2022-10-12T06:28:52;3.47;;;3.13;;
19285;SDS011;9776;50.798;6.430;2022-10-12T06:31:20;3.50;;;3.30;;
19285;SDS011;9776;50.798;6.430;2022-10-12T06:33:46;3.40;;;3.20;;
19285;SDS011;9776;50.798;6.430;2022-10-12T06:36:15;3.45;;;3.15;;
19285;SDS011;9776;50.798;6.430;2022-10-12T06:38:41;3.20;;;3.00;;
19285;SDS011;9776;50.798;6.430;2022-10-12T06:41:08;3.38;;;3.17;;
19285;SDS011;9776;50.798;6.430;2022-10-12T06:43:34;3.28;;;3.08;;
19285;SDS011;9776;50.798;6.430;2022-10-12T06:46:01;3.28;;;3.03;;
19285;SDS011;9776;50.798;6.430;2022-10-12T06:48:30;3.38;;;3.17;;
19285;SDS011;9776;50.798;6.430;2022-10-12T06:50:56;3.58;;;3.38;;
19285;SDS011;9776;50.798;6.430;2022-10-12T06:53:23;3.72;;;3.10;;
19285;SDS011;9776;50.798;6.430;2022-10-12T06:55:52;3.47;;;3.17;;
19285;SDS011;9776;50.798;6.430;2022-10-12T06:58:19;3.15;;;2.95;;
19285;SDS011;9776;50.798;6.430;2022-10-12T07:00:45;3.47;;;3.15;;
19285;SDS011;9776;50.798;6.430;2022-10-12T07:03:12;3.60;;;3.40;;
19285;SDS011;9776;50.798;6.430;2022-10-12T07:05:40;3.60;;;3.40;;
19285;SDS011;9776;50.798;6.430;2022-10-12T07:08:07;3.53;;;3.30;;
19285;SDS011;9776;50.798;6.430;2022-10-12T07:10:33;3.70;;;3.38;;
19285;SDS011;9776;50.798;6.430;2022-10-12T07:13:00;3.78;;;3.47;;
19285;SDS011;9776;50.798;6.430;2022-10-12T07:15:27;3.85;;;3.42;;
19285;SDS011;9776;50.798;6.430;2022-10-12T07:17:53;3.40;;;3.20;;
19285;SDS011;9776;50.798;6.430;2022-10-12T07:20:20;3.80;;;3.17;;
19285;SDS011;9776;50.798;6.430;2022-10-12T07:22:48;3.10;;;2.90;;
19285;SDS011;9776;50.798;6.430;2022-10-12T07:25:14;3.55;;;3.30;;
19285;SDS011;9776;50.798;6.430;2022-10-12T07:27:41;4.45;;;4.07;;
19285;SDS011;9776;50.798;6.430;2022-10-12T07:30:09;3.67;;;3.30;;
19285;SDS011;9776;50.798;6.430;2022-10-12T07:32:37;3.53;;;3.33;;
19285;SDS011;9776;50.798;6.430;2022-10-12T07:35:04;4.15;;;3.85;;
19285;SDS011;9776;50.798;6.430;2022-10-12T07:37:31;4.28;;;3.60;;
19285;SDS011;9776;50.798;6.430;2022-10-12T07:39:59;4.22;;;3.83;;
19285;SDS011;9776;50.798;6.430;2022-10-12T07:42:26;3.80;;;3.50;;
19285;SDS011;9776;50.798;6.430;2022-10-12T07:44:52;4.18;;;3.78;;
19285;SDS011;9776;50.798;6.430;2022-10-12T07:47:19;5.07;;;3.92;;
19285;SDS011;9776;50.798;6.430;2022-10-12T07:49:45;4.40;;;4.00;;
19285;SDS011;9776;50.798;6.430;2022-10-12T07:52:12;4.22;;;3.92;;
19285;SDS011;9776;50.798;6.430;2022-10-12T07:54:38;4.00;;;3.70;;
19285;SDS011;9776;50.798;6.430;2022-10-12T07:57:06;3.90;;;3.60;;
19285;SDS011;9776;50.798;6.430;2022-10-12T07:59:33;4.45;;;3.90;;
19285;SDS011;9776;50.798;6.430;2022-10-12T08:02:00;4.05;;;3.42;;
19285;SDS011;9776;50.798;6.430;2022-10-12T08:04:27;3.67;;;3.33;;
19285;SDS011;9776;50.798;6.430;2022-10-12T08:06:53;3.38;;;3.08;;
19285;SDS011;9776;50.798;6.430;2022-10-12T08:09:21;3.92;;;3.63;;
19285;SDS011;9776;50.798;6.430;2022-10-12T08:11:48;3.88;;;3.53;;
19285;SDS011;9776;50.798;6.430;2022-10-12T08:14:16;3.60;;;3.30;;
19285;SDS011;9776;50.798;6.430;2022-10-12T08:16:43;3.30;;;3.10;;
19285;SDS011;9776;50.798;6.430;2022-10-12T08:19:10;4.25;;;3.08;;
19285;SDS011;9776;50.798;6.430;2022-10-12T08:21:37;3.28;;;3.00;;
19285;SDS011;9776;50.798;6.430;2022-10-12T08:24:05;3.70;;;2.92;;
19285;SDS011;9776;50.798;6.430;2022-10-12T08:26:32;3.47;;;3.17;;
19285;SDS011;9776;50.798;6.430;2022-10-12T08:29:00;3.55;;;3.25;;
19285;SDS011;9776;50.798;6.430;2022-10-12T08:31:28;3.80;;;3.47;;
19285;SDS011;9776;50.798;6.430;2022-10-12T08:33:55;3.40;;;3.10;;
19285;SDS011;9776;50.798;6.430;2022-10-12T08:36:22;3.58;;;3.28;;
19285;SDS011;9776;50.798;6.430;2022-10-12T08:38:49;3.45;;;3.15;;
19285;SDS011;9776;50.798;6.430;2022-10-12T08:41:20;3.42;;;3.17;;
19285;SDS011;9776;50.798;6.430;2022-10-12T08:43:58;3.60;;;3.30;;
19285;SDS011;9776;50.798;6.430;2022-10-12T08:46:39;3.60;;;3.25;;
19285;SDS011;9776;50.798;6.430;2022-10-12T08:49:06;4.25;;;3.20;;
19285;SDS011;9776;50.798;6.430;2022-10-12T08:51:44;7.15;;;4.05;;
19285;SDS011;9776;50.798;6.430;2022-10-12T08:54:14;4.60;;;3.55;;
19285;SDS011;9776;50.798;6.430;2022-10-12T08:56:42;3.47;;;2.95;;
19285;SDS011;9776;50.798;6.430;2022-10-12T08:59:11;3.60;;;3.30;;
19285;SDS011;9776;50.798;6.430;2022-10-12T09:01:47;5.13;;;3.70;;
19285;SDS011;9776;50.798;6.430;2022-10-12T09:04:30;5.00;;;3.75;;
19285;SDS011;9776;50.798;6.430;2022-10-12T09:07:07;4.72;;;3.65;;
19285;SDS011;9776;50.798;6.430;2022-10-12T09:09:40;5.68;;;4.03;;
19285;SDS011;9776;50.798;6.430;2022-10-12T09:12:22;5.47;;;3.30;;
19285;SDS011;9776;50.798;6.430;2022-10-12T09:14:59;5.18;;;3.45;;
19285;SDS011;9776;50.798;6.430;2022-10-12T09:17:31;4.00;;;3.25;;
19285;SDS011;9776;50.798;6.430;2022-10-12T09:20:03;5.53;;;5.07;;
19285;SDS011;9776;50.798;6.430;2022-10-12T09:22:39;7.95;;;7.28;;
19285;SDS011;9776;50.798;6.430;2022-10-12T09:25:10;7.20;;;6.70;;
19285;SDS011;9776;50.798;6.430;2022-10-12T09:27:39;6.97;;;6.38;;
19285;SDS011;9776;50.798;6.430;2022-10-12T09:30:11;6.55;;;5.00;;
19285;SDS011;9776;50.798;6.430;2022-10-12T09:32:46;3.55;;;3.15;;
19285;SDS011;9776;50.798;6.430;2022-10-12T09:35:31;4.25;;;3.22;;
19285;SDS011;9776;50.798;6.430;2022-10-12T09:37:58;3.78;;;2.63;;
19285;SDS011;9776;50.798;6.430;2022-10-12T09:40:26;3.25;;;2.50;;
19285;SDS011;9776;50.798;6.430;2022-10-12T09:42:56;2.72;;;2.13;;
19285;SDS011;9776;50.798;6.430;2022-10-12T09:45:25;2.47;;;1.77;;
19285;SDS011;9776;50.798;6.430;2022-10-12T09:50:52;2.60;;;2.40;;
19285;SDS011;9776;50.798;6.430;2022-10-12T09:53:25;2.65;;;2.42;;
19285;SDS011;9776;50.798;6.430;2022-10-12T09:55:57;4.03;;;2.47;;
19285;SDS011;9776;50.798;6.430;2022-10-12T09:58:26;3.38;;;2.75;;
19285;SDS011;9776;50.798;6.430;2022-10-12T10:03:50;2.35;;;2.20;;
19285;SDS011;9776;50.798;6.430;2022-10-12T10:06:33;2.15;;;2.03;;
19285;SDS011;9776;50.798;6.430;2022-10-12T10:08:59;2.90;;;2.65;;
19285;SDS011;9776;50.798;6.430;2022-10-12T10:11:26;3.20;;;2.50;;
19285;SDS011;9776;50.798;6.430;2022-10-12T10:13:55;3.40;;;2.70;;
19285;SDS011;9776;50.798;6.430;2022-10-12T10:16:24;3.08;;;2.83;;
19285;SDS011;9776;50.798;6.430;2022-10-12T10:18:58;3.88;;;3.58;;
19285;SDS011;9776;50.798;6.430;2022-10-12T10:21:28;4.38;;;3.97;;
19285;SDS011;9776;50.798;6.430;2022-10-12T10:23:57;3.47;;;3.28;;
19285;SDS011;9776;50.798;6.430;2022-10-12T10:26:26;4.07;;;3.72;;
19285;SDS011;9776;50.798;6.430;2022-10-12T10:28:55;3.55;;;3.30;;
19285;SDS011;9776;50.798;6.430;2022-10-12T10:31:24;3.05;;;2.85;;
19285;SDS011;9776;50.798;6.430;2022-10-12T10:34:11;3.00;;;2.80;;
19285;SDS011;9776;50.798;6.430;2022-10-12T10:36:45;3.40;;;2.67;;
19285;SDS011;9776;50.798;6.430;2022-10-12T10:39:18;2.92;;;2.72;;
19285;SDS011;9776;50.798;6.430;2022-10-12T10:41:47;3.92;;;2.92;;
19285;SDS011;9776;50.798;6.430;2022-10-12T10:44:18;2.38;;;2.13;;
19285;SDS011;9776;50.798;6.430;2022-10-12T10:46:53;2.60;;;2.40;;
19285;SDS011;9776;50.798;6.430;2022-10-12T10:49:24;3.42;;;2.60;;
19285;SDS011;9776;50.798;6.430;2022-10-12T10:51:58;3.28;;;2.72;;
19285;SDS011;9776;50.798;6.430;2022-10-12T10:54:28;2.88;;;2.67;;
19285;SDS011;9776;50.798;6.430;2022-10-12T10:56:58;3.08;;;2.78;;
19285;SDS011;9776;50.798;6.430;2022-10-12T10:59:38;3.08;;;2.78;;
19285;SDS011;9776;50.798;6.430;2022-10-12T11:02:21;2.47;;;2.28;;
19285;SDS011;9776;50.798;6.430;2022-10-12T11:04:54;2.17;;;1.98;;
19285;SDS011;9776;50.798;6.430;2022-10-12T11:07:29;2.42;;;2.22;;
19285;SDS011;9776;50.798;6.430;2022-10-12T11:10:01;1.98;;;1.88;;
19285;SDS011;9776;50.798;6.430;2022-10-12T11:12:33;2.33;;;2.20;;
19285;SDS011;9776;50.798;6.430;2022-10-12T11:15:07;2.28;;;2.08;;
19285;SDS011;9776;50.798;6.430;2022-10-12T11:17:42;1.88;;;1.77;;
19285;SDS011;9776;50.798;6.430;2022-10-12T11:20:24;2.22;;;2.10;;
19285;SDS011;9776;50.798;6.430;2022-10-12T11:22:56;2.30;;;2.15;;
19285;SDS011;9776;50.798;6.430;2022-10-12T11:25:27;2.13;;;1.92;;
19285;SDS011;9776;50.798;6.430;2022-10-12T11:27:58;2.53;;;2.33;;
19285;SDS011;9776;50.798;6.430;2022-10-12T11:30:36;2.08;;;1.98;;
19285;SDS011;9776;50.798;6.430;2022-10-12T11:33:06;2.03;;;1.80;;
19285;SDS011;9776;50.798;6.430;2022-10-12T11:35:39;1.80;;;1.70;;
19285;SDS011;9776;50.798;6.430;2022-10-12T11:38:11;2.10;;;1.90;;
19285;SDS011;9776;50.798;6.430;2022-10-12T11:40:44;1.90;;;1.80;;
19285;SDS011;9776;50.798;6.430;2022-10-12T11:43:16;2.20;;;2.00;;
19285;SDS011;9776;50.798;6.430;2022-10-12T11:45:47;2.17;;;1.77;;
19285;SDS011;9776;50.798;6.430;2022-10-12T11:48:18;3.60;;;1.63;;
19285;SDS011;9776;50.798;6.430;2022-10-12T11:50:49;1.70;;;1.60;;
19285;SDS011;9776;50.798;6.430;2022-10-12T11:53:18;1.63;;;1.52;;
19285;SDS011;9776;50.798;6.430;2022-10-12T11:55:54;1.83;;;1.73;;
19285;SDS011;9776;50.798;6.430;2022-10-12T11:58:27;1.92;;;1.67;;
19285;SDS011;9776;50.798;6.430;2022-10-12T12:01:00;2.05;;;1.85;;
19285;SDS011;9776;50.798;6.430;2022-10-12T12:03:36;2.17;;;1.67;;
19285;SDS011;9776;50.798;6.430;2022-10-12T12:06:42;1.40;;;1.30;;
19285;SDS011;9776;50.798;6.430;2022-10-12T12:09:19;2.20;;;1.40;;
19285;SDS011;9776;50.798;6.430;2022-10-12T12:12:06;1.75;;;1.65;;
19285;SDS011;9776;50.798;6.430;2022-10-12T12:17:32;1.38;;;1.27;;
19285;SDS011;9776;50.798;6.430;2022-10-12T12:20:00;1.38;;;1.27;;
19285;SDS011;9776;50.798;6.430;2022-10-12T12:22:30;1.60;;;1.50;;
19285;SDS011;9776;50.798;6.430;2022-10-12T12:25:03;2.92;;;1.40;;
19285;SDS011;9776;50.798;6.430;2022-10-12T12:27:41;2.17;;;1.17;;
19285;SDS011;9776;50.798;6.430;2022-10-12T12:30:20;1.40;;;1.30;;
19285;SDS011;9776;50.798;6.430;2022-10-12T12:32:54;1.25;;;1.15;;
19285;SDS011;9776;50.798;6.430;2022-10-12T12:35:27;1.58;;;1.30;;
19285;SDS011;9776;50.798;6.430;2022-10-12T12:41:01;1.30;;;1.20;;
19285;SDS011;9776;50.798;6.430;2022-10-12T12:43:34;1.70;;;1.50;;
19285;SDS011;9776;50.798;6.430;2022-10-12T12:49:38;1.35;;;1.25;;
19285;SDS011;9776;50.798;6.430;2022-10-12T12:52:10;1.55;;;1.17;;
19285;SDS011;9776;50.798;6.430;2022-10-12T12:54:42;2.13;;;1.67;;
19285;SDS011;9776;50.798;6.430;2022-10-12T12:57:29;1.75;;;1.65;;
19285;SDS011;9776;50.798;6.430;2022-10-12T13:00:12;1.38;;;1.27;;
19285;SDS011;9776;50.798;6.430;2022-10-12T13:06:17;2.13;;;1.50;;
19285;SDS011;9776;50.798;6.430;2022-10-12T13:09:08;2.05;;;1.80;;
19285;SDS011;9776;50.798;6.430;2022-10-12T13:11:59;2.50;;;2.30;;
19285;SDS011;9776;50.798;6.430;2022-10-12T13:14:40;2.10;;;1.85;;
19285;SDS011;9776;50.798;6.430;2022-10-12T13:17:22;1.90;;;1.80;;
19285;SDS011;9776;50.798;6.430;2022-10-12T13:20:05;3.65;;;2.15;;
19285;SDS011;9776;50.798;6.430;2022-10-12T13:22:41;1.85;;;1.75;;
19285;SDS011;9776;50.798;6.430;2022-10-12T13:25:12;1.70;;;1.60;;
19285;SDS011;9776;50.798;6.430;2022-10-12T13:27:48;1.73;;;1.45;;
19285;SDS011;9776;50.798;6.430;2022-10-12T13:30:19;1.83;;;1.73;;
19285;SDS011;9776;50.798;6.430;2022-10-12T13:32:52;1.52;;;1.42;;
19285;SDS011;9776;50.798;6.430;2022-10-12T13:35:25;1.25;;;1.15;;
19285;SDS011;9776;50.798;6.430;2022-10-12T13:38:01;1.70;;;1.60;;
19285;SDS011;9776;50.798;6.430;2022-10-12T13:40:30;3.53;;;1.77;;
19285;SDS011;9776;50.798;6.430;2022-10-12T13:43:18;2.42;;;2.22;;
19285;SDS011;9776;50.798;6.430;2022-10-12T13:45:50;2.40;;;2.28;;
19285;SDS011;9776;50.798;6.430;2022-10-12T13:48:18;2.55;;;2.35;;
19285;SDS011;9776;50.798;6.430;2022-10-12T13:50:49;2.85;;;2.08;;
19285;SDS011;9776;50.798;6.430;2022-10-12T13:53:17;1.98;;;1.88;;
19285;SDS011;9776;50.798;6.430;2022-10-12T13:55:49;1.70;;;1.60;;
19285;SDS011;9776;50.798;6.430;2022-10-12T13:58:22;1.50;;;1.40;;
19285;SDS011;9776;50.798;6.430;2022-10-12T14:00:53;3.58;;;3.28;;
19285;SDS011;9776;50.798;6.430;2022-10-12T14:03:22;1.70;;;1.60;;
19285;SDS011;9776;50.798;6.430;2022-10-12T14:05:50;6.20;;;5.80;;
19285;SDS011;9776;50.798;6.430;2022-10-12T14:08:20;2.50;;;2.30;;
19285;SDS011;9776;50.798;6.430;2022-10-12T14:10:50;5.70;;;5.30;;
19285;SDS011;9776;50.798;6.430;2022-10-12T14:13:19;4.63;;;4.25;;
19285;SDS011;9776;50.798;6.430;2022-10-12T14:15:52;3.33;;;3.10;;
19285;SDS011;9776;50.798;6.430;2022-10-12T14:18:34;2.78;;;2.58;;
19285;SDS011;9776;50.798;6.430;2022-10-12T14:21:04;4.07;;;3.78;;
19285;SDS011;9776;50.798;6.430;2022-10-12T14:23:39;3.88;;;3.58;;
19285;SDS011;9776;50.798;6.430;2022-10-12T14:26:13;2.90;;;2.70;;
19285;SDS011;9776;50.798;6.430;2022-10-12T14:28:50;3.58;;;3.38;;
19285;SDS011;9776;50.798;6.430;2022-10-12T14:31:17;3.50;;;3.30;;
19285;SDS011;9776;50.798;6.430;2022-10-12T14:33:44;4.43;;;4.13;;
19285;SDS011;9776;50.798;6.430;2022-10-12T14:36:12;2.50;;;2.30;;
19285;SDS011;9776;50.798;6.430;2022-10-12T14:38:41;3.22;;;3.03;;
19285;SDS011;9776;50.798;6.430;2022-10-12T14:44:05;2.20;;;2.10;;
19285;SDS011;9776;50.798;6.430;2022-10-12T14:46:35;2.65;;;2.45;;
19285;SDS011;9776;50.798;6.430;2022-10-12T14:49:03;2.97;;;2.78;;
19285;SDS011;9776;50.798;6.430;2022-10-12T14:51:31;2.58;;;2.38;;
19285;SDS011;9776;50.798;6.430;2022-10-12T14:53:58;2.83;;;2.63;;
19285;SDS011;9776;50.798;6.430;2022-10-12T14:56:25;3.13;;;2.83;;
19285;SDS011;9776;50.798;6.430;2022-10-12T14:58:52;2.88;;;2.67;;
19285;SDS011;9776;50.798;6.430;2022-10-12T15:01:20;3.05;;;2.85;;
19285;SDS011;9776;50.798;6.430;2022-10-12T15:03:47;3.10;;;2.75;;
19285;SDS011;9776;50.798;6.430;2022-10-12T15:06:15;3.00;;;2.67;;
19285;SDS011;9776;50.798;6.430;2022-10-12T15:08:42;3.08;;;2.88;;
19285;SDS011;9776;50.798;6.430;2022-10-12T15:11:10;3.17;;;2.30;;
19285;SDS011;9776;50.798;6.430;2022-10-12T15:13:38;3.35;;;2.83;;
19285;SDS011;9776;50.798;6.430;2022-10-12T15:16:06;3.42;;;3.22;;
19285;SDS011;9776;50.798;6.430;2022-10-12T15:18:42;3.28;;;3.08;;
19285;SDS011;9776;50.798;6.430;2022-10-12T15:21:10;3.28;;;3.08;;
19285;SDS011;9776;50.798;6.430;2022-10-12T15:23:38;3.53;;;3.33;;
19285;SDS011;9776;50.798;6.430;2022-10-12T15:26:05;3.67;;;3.47;;
19285;SDS011;9776;50.798;6.430;2022-10-12T15:28:32;3.67;;;3.47;;
19285;SDS011;9776;50.798;6.430;2022-10-12T15:30:59;3.78;;;3.58;;
19285;SDS011;9776;50.798;6.430;2022-10-12T15:33:27;3.35;;;3.15;;
19285;SDS011;9776;50.798;6.430;2022-10-12T15:35:56;3.67;;;3.47;;
19285;SDS011;9776;50.798;6.430;2022-10-12T15:38:22;3.53;;;3.33;;
19285;SDS011;9776;50.798;6.430;2022-10-12T15:40:49;3.70;;;3.50;;